createdAt,value
2023-01-01T00:02:42.127Z,100148
2023-01-01T00:08:35.087Z,100156
2023-01-01T00:14:26.656Z,100156
2023-01-01T00:20:19.738Z,100160
2023-01-01T00:26:20.225Z,100141
2023-01-01T00:32:25.106Z,100141
2023-01-01T00:38:17.451Z,100139
2023-01-01T00:44:10.455Z,100146
2023-01-01T00:50:05.582Z,100159
2023-01-01T00:56:01.836Z,100170
2023-01-01T01:01:56.692Z,100156
2023-01-01T01:07:56.089Z,100163
2023-01-01T01:13:48.924Z,100169
2023-01-01T01:19:41.904Z,100160
2023-01-01T01:25:37.911Z,100153
2023-01-01T01:31:32.334Z,100158
2023-01-01T01:37:23.849Z,100149
2023-01-01T01:43:15.500Z,100191
2023-01-01T01:49:11.380Z,100197
2023-01-01T01:55:06.766Z,100212
2023-01-01T02:01:00.553Z,100224
2023-01-01T02:06:51.265Z,100224
2023-01-01T02:12:39.800Z,100236
2023-01-01T02:18:32.421Z,100239
2023-01-01T02:24:21.395Z,100234
2023-01-01T02:30:10.136Z,100235
2023-01-01T02:35:59.409Z,100242
2023-01-01T02:41:49.155Z,100236
2023-01-01T02:47:40.426Z,100248
2023-01-01T02:53:30.399Z,100243
2023-01-01T02:59:19.580Z,100266
2023-01-01T03:05:08.819Z,100254
2023-01-01T03:10:59.461Z,100243
2023-01-01T03:16:49.159Z,100257
2023-01-01T03:28:33.079Z,100244
2023-01-01T03:34:23.497Z,100240
2023-01-01T03:40:15.724Z,100260
2023-01-01T03:46:05.919Z,100267
2023-01-01T03:51:58.315Z,100263
2023-01-01T03:57:48.179Z,100268
2023-01-01T04:03:39.844Z,100270
2023-01-01T04:09:30.218Z,100260
2023-01-01T04:15:20.609Z,100266
2023-01-01T04:21:11.803Z,100255
2023-01-01T04:27:03.259Z,100251
2023-01-01T04:32:53.059Z,100248
2023-01-01T04:38:40.299Z,100252
2023-01-01T04:44:31.849Z,100266
2023-01-01T04:50:19.214Z,100268
2023-01-01T04:56:06.736Z,100265
2023-01-01T05:01:56.707Z,100283
2023-01-01T05:07:48.789Z,100292
2023-01-01T05:13:36.472Z,100296
2023-01-01T05:19:24.950Z,100286
2023-01-01T05:25:12.362Z,100283
2023-01-01T05:31:05.035Z,100284
2023-01-01T05:36:55.353Z,100316
2023-01-01T05:42:46.031Z,100319
2023-01-01T05:48:34.270Z,100322
2023-01-01T06:00:10.185Z,100317
2023-01-01T06:05:59.773Z,100326
2023-01-01T06:11:49.521Z,100348
2023-01-01T06:17:39.279Z,100364
2023-01-01T06:23:29.722Z,100372
2023-01-01T06:29:18.608Z,100371
2023-01-01T06:35:07.532Z,100361
2023-01-01T06:41:00.070Z,100355
2023-01-01T06:46:47.367Z,100384
2023-01-01T06:52:36.426Z,100410
2023-01-01T06:58:24.716Z,100393
2023-01-01T07:04:15.070Z,100410
2023-01-01T07:10:04.257Z,100388
2023-01-01T07:15:53.179Z,100391
2023-01-01T07:21:42.196Z,100406
2023-01-01T07:27:31.232Z,100415
2023-01-01T07:33:21.117Z,100450
2023-01-01T07:39:10.832Z,100457
2023-01-01T07:45:01.408Z,100466
2023-01-01T07:50:50.775Z,100457
2023-01-01T07:56:41.108Z,100472
2023-01-01T08:03:39.258Z,100485
2023-01-01T08:09:29.344Z,100501
2023-01-01T08:15:20.547Z,100510
2023-01-01T08:21:12.167Z,100488
2023-01-01T08:27:03.451Z,100502
2023-01-01T08:32:55.341Z,100511
2023-01-01T08:38:46.739Z,100511
2023-01-01T08:44:37.537Z,100511
2023-01-01T08:50:28.862Z,100522
2023-01-01T08:56:20.215Z,100523
2023-01-01T09:02:11.763Z,100535
2023-01-01T09:08:03.895Z,100541
2023-01-01T09:13:56.025Z,100548
2023-01-01T09:19:46.431Z,100535
2023-01-01T09:25:38.785Z,100530
2023-01-01T09:31:30.469Z,100536
2023-01-01T09:37:22.404Z,100550
2023-01-01T09:43:14.170Z,100558
2023-01-01T09:49:04.268Z,100577
2023-01-01T09:54:55.908Z,100585
2023-01-01T10:00:46.955Z,100594
2023-01-01T10:06:38.490Z,100597
2023-01-01T10:12:30.855Z,100577
2023-01-01T10:18:21.656Z,100587
2023-01-01T10:24:12.573Z,100584
2023-01-01T10:30:07.475Z,100584
2023-01-01T10:35:59.286Z,100591
2023-01-01T10:41:50.285Z,100589
2023-01-01T10:47:42.083Z,100594
2023-01-01T10:53:33.613Z,100577
2023-01-01T10:59:23.971Z,100575
2023-01-01T11:05:23.869Z,100568
2023-01-01T11:11:13.979Z,100563
2023-01-01T11:17:05.245Z,100577
2023-01-01T11:22:57.572Z,100586
2023-01-01T11:28:48.265Z,100584
2023-01-01T11:34:42.225Z,100590
2023-01-01T11:40:32.962Z,100595
2023-01-01T11:46:23.993Z,100588
2023-01-01T11:52:15.591Z,100589
2023-01-01T11:58:06.292Z,100595
2023-01-01T12:04:02.421Z,100593
2023-01-01T12:09:54.423Z,100575
2023-01-01T12:15:45.911Z,100574
2023-01-01T12:21:36.995Z,100564
2023-01-01T12:27:26.674Z,100556
2023-01-01T12:33:17.812Z,100544
2023-01-01T12:39:08.445Z,100546
2023-01-01T12:44:59.537Z,100538
2023-01-01T12:53:32.911Z,100534
2023-01-01T12:59:21.951Z,100527
2023-01-01T13:05:12.323Z,100521
2023-01-01T13:11:02.670Z,100529
2023-01-01T13:16:54.967Z,100535
2023-01-01T13:22:45.025Z,100526
2023-01-01T13:28:35.586Z,100536
2023-01-01T13:34:27.076Z,100534
2023-01-01T13:40:17.622Z,100543
2023-01-01T13:46:17.634Z,100535
2023-01-01T13:52:10.333Z,100527
2023-01-01T13:58:00.869Z,100523
2023-01-01T14:03:51.553Z,100511
2023-01-01T14:09:55.151Z,100517
2023-01-01T14:16:03.270Z,100505
2023-01-01T14:22:24.501Z,100503
2023-01-01T14:28:45.565Z,100505
2023-01-01T14:35:09.014Z,100518
2023-01-01T14:47:15.585Z,100529
2023-01-01T14:53:27.430Z,100533
2023-01-01T14:59:47.689Z,100541
2023-01-01T15:06:12.148Z,100536
2023-01-01T15:12:23.167Z,100543
2023-01-01T15:18:39.940Z,100538
2023-01-01T15:24:46.260Z,100538
2023-01-01T15:30:44.103Z,100544
2023-01-01T15:36:58.563Z,100541
2023-01-01T15:43:26.608Z,100539
2023-01-01T15:49:52.951Z,100540
2023-01-01T15:56:13.341Z,100551
2023-01-01T16:02:35.197Z,100553
2023-01-01T16:08:56.845Z,100542
2023-01-01T16:15:10.077Z,100531
2023-01-01T16:21:23.450Z,100525
2023-01-01T16:27:46.781Z,100508
2023-01-01T16:34:09.311Z,100495
2023-01-01T16:40:37.779Z,100487
2023-01-01T16:46:56.187Z,100483
2023-01-01T16:53:21.048Z,100489
2023-01-01T16:59:18.782Z,100476
2023-01-01T17:05:08.849Z,100464
2023-01-01T17:11:09.747Z,100462
2023-01-01T17:16:59.072Z,100470
2023-01-01T17:22:48.863Z,100457
2023-01-01T17:28:38.846Z,100452
2023-01-01T17:34:28.891Z,100441
2023-01-01T17:40:19.549Z,100440
2023-01-01T17:46:10.141Z,100457
2023-01-01T17:52:00.647Z,100449
2023-01-01T17:57:51.430Z,100445
2023-01-01T18:03:40.882Z,100448
2023-01-01T18:09:29.317Z,100440
2023-01-01T18:15:19.148Z,100420
2023-01-01T18:21:09.270Z,100394
2023-01-01T18:26:59.511Z,100387
2023-01-01T18:34:02.017Z,100407
2023-01-01T18:39:51.549Z,100401
2023-01-01T18:45:42.001Z,100395
2023-01-01T18:51:32.592Z,100391
2023-01-01T18:57:31.448Z,100381
2023-01-01T19:03:21.674Z,100370
2023-01-01T19:09:11.927Z,100355
2023-01-01T19:15:02.180Z,100338
2023-01-01T19:20:52.621Z,100338
2023-01-01T19:26:42.814Z,100340
2023-01-01T19:32:33.742Z,100325
2023-01-01T19:38:24.396Z,100320
2023-01-01T19:44:18.605Z,100302
2023-01-01T19:50:13.893Z,100295
2023-01-01T19:56:03.557Z,100294
2023-01-01T20:02:48.066Z,100302
2023-01-01T20:08:36.151Z,100276
2023-01-01T20:14:26.767Z,100261
2023-01-01T20:20:18.089Z,100260
2023-01-01T20:27:13.394Z,100254
2023-01-01T20:33:02.900Z,100253
2023-01-01T20:38:54.164Z,100246
2023-01-01T20:44:44.881Z,100252
2023-01-01T20:50:35.382Z,100251
2023-01-01T20:56:26.856Z,100249
2023-01-01T21:02:19.368Z,100235
2023-01-01T21:08:10.524Z,100241
2023-01-01T21:14:01.484Z,100237
2023-01-01T21:19:52.035Z,100237
2023-01-01T21:25:57.804Z,100235
2023-01-01T21:31:47.291Z,100245
2023-01-01T21:37:38.129Z,100228
2023-01-01T21:43:29.130Z,100233
2023-01-01T21:49:20.213Z,100232
2023-01-01T21:55:11.205Z,100223
2023-01-01T22:01:02.165Z,100233
2023-01-01T22:06:53.848Z,100231
2023-01-01T22:12:44.178Z,100222
2023-01-01T22:18:37.471Z,100206
2023-01-01T22:24:29.041Z,100215
2023-01-01T22:30:19.207Z,100223
2023-01-01T22:36:10.407Z,100231
2023-01-01T22:42:09.673Z,100221
2023-01-01T22:55:08.439Z,100201
2023-01-01T23:00:57.013Z,100203
2023-01-01T23:06:49.492Z,100201
2023-01-01T23:12:40.254Z,100205
2023-01-01T23:18:32.201Z,100187
2023-01-01T23:24:33.351Z,100205
2023-01-01T23:30:26.059Z,100200
2023-01-01T23:36:18.135Z,100189
2023-01-01T23:42:11.696Z,100182
2023-01-01T23:48:04.191Z,100193
2023-01-01T23:53:55.818Z,100178
2023-01-01T23:59:46.656Z,100184
